sensor_id;sensor_type;location;lat;lon;timestamp;P1;durP1;ratioP1;P2;durP2;ratioP2
10063;SDS011;5071;52.360;13.134;2023-05-06T00:04:31;10.93;;;5.10;;
10063;SDS011;5071;52.360;13.134;2023-05-06T00:09:33;7.93;;;5.07;;
10063;SDS011;5071;52.360;13.134;2023-05-06T00:14:35;8.70;;;4.83;;
10063;SDS011;5071;52.360;13.134;2023-05-06T00:19:38;7.60;;;4.80;;
10063;SDS011;5071;52.360;13.134;2023-05-06T00:24:40;6.60;;;5.10;;
10063;SDS011;5071;52.360;13.134;2023-05-06T00:29:42;9.23;;;5.40;;
10063;SDS011;5071;52.360;13.134;2023-05-06T00:34:46;5.87;;;4.63;;
10063;SDS011;5071;52.360;13.134;2023-05-06T00:39:48;10.20;;;5.53;;
10063;SDS011;5071;52.360;13.134;2023-05-06T00:44:50;6.77;;;4.60;;
10063;SDS011;5071;52.360;13.134;2023-05-06T00:49:54;7.23;;;5.03;;
10063;SDS011;5071;52.360;13.134;2023-05-06T00:54:57;10.60;;;5.23;;
10063;SDS011;5071;52.360;13.134;2023-05-06T00:59:59;8.30;;;5.10;;
10063;SDS011;5071;52.360;13.134;2023-05-06T01:05:02;7.47;;;4.87;;
10063;SDS011;5071;52.360;13.134;2023-05-06T01:10:06;12.20;;;4.73;;
10063;SDS011;5071;52.360;13.134;2023-05-06T01:15:14;9.00;;;4.87;;
10063;SDS011;5071;52.360;13.134;2023-05-06T01:20:22;9.47;;;5.30;;
10063;SDS011;5071;52.360;13.134;2023-05-06T01:25:27;7.53;;;5.07;;
10063;SDS011;5071;52.360;13.134;2023-05-06T01:30:29;8.40;;;5.20;;
10063;SDS011;5071;52.360;13.134;2023-05-06T01:35:53;7.43;;;4.90;;
10063;SDS011;5071;52.360;13.134;2023-05-06T01:41:03;8.07;;;5.20;;
10063;SDS011;5071;52.360;13.134;2023-05-06T01:46:06;7.07;;;5.47;;
10063;SDS011;5071;52.360;13.134;2023-05-06T01:51:13;7.47;;;4.80;;
10063;SDS011;5071;52.360;13.134;2023-05-06T01:56:16;5.57;;;4.60;;
10063;SDS011;5071;52.360;13.134;2023-05-06T02:01:19;8.47;;;5.17;;
10063;SDS011;5071;52.360;13.134;2023-05-06T02:06:21;11.37;;;5.33;;
10063;SDS011;5071;52.360;13.134;2023-05-06T02:11:24;7.20;;;5.17;;
10063;SDS011;5071;52.360;13.134;2023-05-06T02:16:26;7.43;;;4.90;;
10063;SDS011;5071;52.360;13.134;2023-05-06T02:21:28;8.70;;;5.37;;
10063;SDS011;5071;52.360;13.134;2023-05-06T02:31:35;7.30;;;5.10;;
10063;SDS011;5071;52.360;13.134;2023-05-06T02:36:37;11.97;;;6.03;;
10063;SDS011;5071;52.360;13.134;2023-05-06T02:41:40;6.53;;;5.33;;
10063;SDS011;5071;52.360;13.134;2023-05-06T02:46:43;10.10;;;5.47;;
10063;SDS011;5071;52.360;13.134;2023-05-06T02:51:44;7.80;;;5.37;;
10063;SDS011;5071;52.360;13.134;2023-05-06T02:56:48;6.37;;;4.83;;
10063;SDS011;5071;52.360;13.134;2023-05-06T03:01:50;8.67;;;5.57;;
10063;SDS011;5071;52.360;13.134;2023-05-06T03:06:52;10.23;;;6.10;;
10063;SDS011;5071;52.360;13.134;2023-05-06T03:11:56;8.83;;;5.43;;
10063;SDS011;5071;52.360;13.134;2023-05-06T03:16:58;8.97;;;5.23;;
10063;SDS011;5071;52.360;13.134;2023-05-06T03:22:00;10.60;;;6.10;;
10063;SDS011;5071;52.360;13.134;2023-05-06T03:27:04;6.80;;;5.47;;
10063;SDS011;5071;52.360;13.134;2023-05-06T03:32:06;9.67;;;6.23;;
10063;SDS011;5071;52.360;13.134;2023-05-06T03:37:08;8.00;;;5.33;;
10063;SDS011;5071;52.360;13.134;2023-05-06T03:42:12;10.17;;;5.03;;
10063;SDS011;5071;52.360;13.134;2023-05-06T03:47:14;8.50;;;5.83;;
10063;SDS011;5071;52.360;13.134;2023-05-06T03:52:16;10.50;;;5.23;;
10063;SDS011;5071;52.360;13.134;2023-05-06T03:57:20;8.27;;;5.67;;
10063;SDS011;5071;52.360;13.134;2023-05-06T04:02:22;7.97;;;5.90;;
10063;SDS011;5071;52.360;13.134;2023-05-06T04:07:25;8.27;;;5.00;;
10063;SDS011;5071;52.360;13.134;2023-05-06T04:12:28;9.33;;;5.60;;
10063;SDS011;5071;52.360;13.134;2023-05-06T04:17:31;8.57;;;5.77;;
10063;SDS011;5071;52.360;13.134;2023-05-06T04:22:32;8.20;;;5.40;;
10063;SDS011;5071;52.360;13.134;2023-05-06T04:27:36;7.53;;;5.30;;
10063;SDS011;5071;52.360;13.134;2023-05-06T04:32:38;7.80;;;5.17;;
10063;SDS011;5071;52.360;13.134;2023-05-06T04:37:40;12.23;;;5.67;;
10063;SDS011;5071;52.360;13.134;2023-05-06T04:42:44;8.73;;;5.87;;
10063;SDS011;5071;52.360;13.134;2023-05-06T04:47:46;7.37;;;5.17;;
10063;SDS011;5071;52.360;13.134;2023-05-06T04:52:48;10.87;;;5.77;;
10063;SDS011;5071;52.360;13.134;2023-05-06T04:57:51;9.97;;;5.43;;
10063;SDS011;5071;52.360;13.134;2023-05-06T05:02:53;8.53;;;5.43;;
10063;SDS011;5071;52.360;13.134;2023-05-06T05:07:55;8.60;;;5.83;;
10063;SDS011;5071;52.360;13.134;2023-05-06T05:12:58;7.90;;;5.80;;
10063;SDS011;5071;52.360;13.134;2023-05-06T05:18:01;10.43;;;5.60;;
10063;SDS011;5071;52.360;13.134;2023-05-06T05:23:03;8.17;;;5.20;;
10063;SDS011;5071;52.360;13.134;2023-05-06T05:28:06;9.90;;;4.93;;
10063;SDS011;5071;52.360;13.134;2023-05-06T05:33:08;10.37;;;6.63;;
10063;SDS011;5071;52.360;13.134;2023-05-06T05:38:11;7.73;;;5.60;;
10063;SDS011;5071;52.360;13.134;2023-05-06T05:43:14;13.43;;;5.73;;
10063;SDS011;5071;52.360;13.134;2023-05-06T05:48:16;8.27;;;5.40;;
10063;SDS011;5071;52.360;13.134;2023-05-06T05:53:18;8.67;;;5.27;;
10063;SDS011;5071;52.360;13.134;2023-05-06T05:58:21;10.37;;;6.00;;
10063;SDS011;5071;52.360;13.134;2023-05-06T06:03:23;7.40;;;5.80;;
10063;SDS011;5071;52.360;13.134;2023-05-06T06:08:26;7.23;;;4.93;;
10063;SDS011;5071;52.360;13.134;2023-05-06T06:13:29;8.30;;;5.50;;
10063;SDS011;5071;52.360;13.134;2023-05-06T06:18:32;7.87;;;5.43;;
10063;SDS011;5071;52.360;13.134;2023-05-06T06:23:34;8.03;;;4.87;;
10063;SDS011;5071;52.360;13.134;2023-05-06T06:28:38;10.33;;;5.63;;
10063;SDS011;5071;52.360;13.134;2023-05-06T06:33:40;7.80;;;5.43;;
10063;SDS011;5071;52.360;13.134;2023-05-06T06:38:42;8.87;;;5.93;;
10063;SDS011;5071;52.360;13.134;2023-05-06T06:43:47;9.13;;;5.73;;
10063;SDS011;5071;52.360;13.134;2023-05-06T06:48:49;6.97;;;4.87;;
10063;SDS011;5071;52.360;13.134;2023-05-06T06:53:51;10.93;;;6.27;;
10063;SDS011;5071;52.360;13.134;2023-05-06T06:58:54;9.20;;;5.87;;
10063;SDS011;5071;52.360;13.134;2023-05-06T07:03:56;7.67;;;5.57;;
10063;SDS011;5071;52.360;13.134;2023-05-06T07:08:58;10.93;;;5.63;;
10063;SDS011;5071;52.360;13.134;2023-05-06T07:14:02;8.77;;;5.30;;
10063;SDS011;5071;52.360;13.134;2023-05-06T07:19:04;7.07;;;4.60;;
10063;SDS011;5071;52.360;13.134;2023-05-06T07:24:07;8.00;;;5.70;;
10063;SDS011;5071;52.360;13.134;2023-05-06T07:29:10;9.63;;;5.67;;
10063;SDS011;5071;52.360;13.134;2023-05-06T07:34:12;7.73;;;4.73;;
10063;SDS011;5071;52.360;13.134;2023-05-06T07:39:14;9.63;;;6.07;;
10063;SDS011;5071;52.360;13.134;2023-05-06T07:44:17;8.23;;;6.00;;
10063;SDS011;5071;52.360;13.134;2023-05-06T07:49:19;7.43;;;5.53;;
10063;SDS011;5071;52.360;13.134;2023-05-06T07:54:20;7.70;;;5.70;;
10063;SDS011;5071;52.360;13.134;2023-05-06T07:59:24;9.27;;;6.10;;
10063;SDS011;5071;52.360;13.134;2023-05-06T08:04:26;8.07;;;5.80;;
10063;SDS011;5071;52.360;13.134;2023-05-06T08:09:27;9.67;;;6.07;;
10063;SDS011;5071;52.360;13.134;2023-05-06T08:14:31;7.80;;;6.17;;
10063;SDS011;5071;52.360;13.134;2023-05-06T08:19:33;10.67;;;6.40;;
10063;SDS011;5071;52.360;13.134;2023-05-06T08:24:36;7.60;;;6.23;;
10063;SDS011;5071;52.360;13.134;2023-05-06T08:29:39;8.17;;;5.73;;
10063;SDS011;5071;52.360;13.134;2023-05-06T08:34:41;9.57;;;6.60;;
10063;SDS011;5071;52.360;13.134;2023-05-06T08:39:43;7.87;;;5.40;;
10063;SDS011;5071;52.360;13.134;2023-05-06T08:44:46;8.43;;;6.23;;
10063;SDS011;5071;52.360;13.134;2023-05-06T08:49:49;8.87;;;6.83;;
10063;SDS011;5071;52.360;13.134;2023-05-06T08:54:51;10.53;;;6.13;;
10063;SDS011;5071;52.360;13.134;2023-05-06T08:59:58;10.83;;;6.33;;
10063;SDS011;5071;52.360;13.134;2023-05-06T09:05:01;8.67;;;6.10;;
10063;SDS011;5071;52.360;13.134;2023-05-06T09:10:05;7.90;;;5.70;;
10063;SDS011;5071;52.360;13.134;2023-05-06T09:15:09;9.73;;;6.43;;
10063;SDS011;5071;52.360;13.134;2023-05-06T09:20:12;7.17;;;5.63;;
10063;SDS011;5071;52.360;13.134;2023-05-06T09:25:14;7.63;;;5.50;;
10063;SDS011;5071;52.360;13.134;2023-05-06T09:30:17;7.20;;;5.80;;
10063;SDS011;5071;52.360;13.134;2023-05-06T09:35:19;7.93;;;5.83;;
10063;SDS011;5071;52.360;13.134;2023-05-06T09:40:22;6.50;;;5.30;;
10063;SDS011;5071;52.360;13.134;2023-05-06T09:45:26;8.80;;;6.27;;
10063;SDS011;5071;52.360;13.134;2023-05-06T09:50:29;9.73;;;5.53;;
10063;SDS011;5071;52.360;13.134;2023-05-06T09:55:32;7.57;;;6.33;;
10063;SDS011;5071;52.360;13.134;2023-05-06T10:00:37;6.90;;;5.77;;
10063;SDS011;5071;52.360;13.134;2023-05-06T10:05:40;7.10;;;5.13;;
10063;SDS011;5071;52.360;13.134;2023-05-06T10:10:44;8.00;;;6.03;;
10063;SDS011;5071;52.360;13.134;2023-05-06T10:15:48;7.67;;;5.07;;
10063;SDS011;5071;52.360;13.134;2023-05-06T10:20:50;10.40;;;5.43;;
10063;SDS011;5071;52.360;13.134;2023-05-06T10:25:54;7.00;;;5.43;;
10063;SDS011;5071;52.360;13.134;2023-05-06T10:30:58;7.30;;;5.13;;
10063;SDS011;5071;52.360;13.134;2023-05-06T10:36:08;7.83;;;5.37;;
10063;SDS011;5071;52.360;13.134;2023-05-06T10:41:15;6.40;;;4.83;;
10063;SDS011;5071;52.360;13.134;2023-05-06T10:46:19;6.23;;;5.07;;
10063;SDS011;5071;52.360;13.134;2023-05-06T10:51:25;6.37;;;5.77;;
10063;SDS011;5071;52.360;13.134;2023-05-06T10:56:28;5.57;;;4.73;;
10063;SDS011;5071;52.360;13.134;2023-05-06T11:01:33;6.37;;;4.87;;
10063;SDS011;5071;52.360;13.134;2023-05-06T11:06:37;5.23;;;4.50;;
10063;SDS011;5071;52.360;13.134;2023-05-06T11:11:51;6.23;;;4.63;;
10063;SDS011;5071;52.360;13.134;2023-05-06T11:17:02;5.87;;;4.00;;
10063;SDS011;5071;52.360;13.134;2023-05-06T11:22:04;5.70;;;5.10;;
10063;SDS011;5071;52.360;13.134;2023-05-06T11:27:08;5.70;;;4.60;;
10063;SDS011;5071;52.360;13.134;2023-05-06T11:32:18;8.73;;;4.67;;
10063;SDS011;5071;52.360;13.134;2023-05-06T11:37:23;6.80;;;4.80;;
10063;SDS011;5071;52.360;13.134;2023-05-06T11:42:27;7.50;;;5.13;;
10063;SDS011;5071;52.360;13.134;2023-05-06T11:47:30;6.40;;;4.47;;
10063;SDS011;5071;52.360;13.134;2023-05-06T11:52:32;5.93;;;4.30;;
10063;SDS011;5071;52.360;13.134;2023-05-06T11:57:40;5.47;;;4.50;;
10063;SDS011;5071;52.360;13.134;2023-05-06T12:02:44;5.77;;;4.93;;
10063;SDS011;5071;52.360;13.134;2023-05-06T12:07:46;6.50;;;4.13;;
10063;SDS011;5071;52.360;13.134;2023-05-06T12:12:49;4.80;;;4.30;;
10063;SDS011;5071;52.360;13.134;2023-05-06T12:17:53;5.10;;;4.20;;
10063;SDS011;5071;52.360;13.134;2023-05-06T12:23:04;6.73;;;4.57;;
10063;SDS011;5071;52.360;13.134;2023-05-06T12:28:12;5.50;;;4.33;;
10063;SDS011;5071;52.360;13.134;2023-05-06T12:33:16;6.50;;;4.47;;
10063;SDS011;5071;52.360;13.134;2023-05-06T12:38:18;6.43;;;5.20;;
10063;SDS011;5071;52.360;13.134;2023-05-06T12:43:26;6.00;;;4.43;;
10063;SDS011;5071;52.360;13.134;2023-05-06T12:48:30;8.03;;;4.60;;
10063;SDS011;5071;52.360;13.134;2023-05-06T12:53:33;8.43;;;5.23;;
10063;SDS011;5071;52.360;13.134;2023-05-06T12:58:35;5.90;;;4.83;;
10063;SDS011;5071;52.360;13.134;2023-05-06T13:03:39;5.80;;;4.93;;
10063;SDS011;5071;52.360;13.134;2023-05-06T13:08:42;7.23;;;5.27;;
10063;SDS011;5071;52.360;13.134;2023-05-06T13:13:44;5.20;;;4.43;;
10063;SDS011;5071;52.360;13.134;2023-05-06T13:18:47;7.33;;;4.80;;
10063;SDS011;5071;52.360;13.134;2023-05-06T13:23:49;4.90;;;4.20;;
10063;SDS011;5071;52.360;13.134;2023-05-06T13:28:52;6.23;;;4.67;;
10063;SDS011;5071;52.360;13.134;2023-05-06T13:33:55;7.90;;;4.53;;
10063;SDS011;5071;52.360;13.134;2023-05-06T13:38:57;6.23;;;3.83;;
10063;SDS011;5071;52.360;13.134;2023-05-06T13:43:59;5.80;;;3.87;;
10063;SDS011;5071;52.360;13.134;2023-05-06T13:49:03;5.33;;;3.57;;
10063;SDS011;5071;52.360;13.134;2023-05-06T13:54:05;8.37;;;4.90;;
10063;SDS011;5071;52.360;13.134;2023-05-06T13:59:07;5.30;;;4.27;;
10063;SDS011;5071;52.360;13.134;2023-05-06T14:04:11;6.47;;;4.37;;
10063;SDS011;5071;52.360;13.134;2023-05-06T14:09:13;6.23;;;4.07;;
10063;SDS011;5071;52.360;13.134;2023-05-06T14:14:14;4.80;;;3.70;;
10063;SDS011;5071;52.360;13.134;2023-05-06T14:19:18;5.60;;;3.97;;
10063;SDS011;5071;52.360;13.134;2023-05-06T14:24:20;7.80;;;3.97;;
10063;SDS011;5071;52.360;13.134;2023-05-06T14:29:22;5.87;;;4.03;;
10063;SDS011;5071;52.360;13.134;2023-05-06T14:34:25;5.23;;;3.33;;
10063;SDS011;5071;52.360;13.134;2023-05-06T14:39:27;5.57;;;4.27;;
10063;SDS011;5071;52.360;13.134;2023-05-06T14:44:29;7.23;;;3.10;;
10063;SDS011;5071;52.360;13.134;2023-05-06T14:49:33;3.53;;;3.17;;
10063;SDS011;5071;52.360;13.134;2023-05-06T14:54:35;4.20;;;3.13;;
10063;SDS011;5071;52.360;13.134;2023-05-06T14:59:37;4.63;;;2.90;;
10063;SDS011;5071;52.360;13.134;2023-05-06T15:04:40;5.17;;;3.17;;
10063;SDS011;5071;52.360;13.134;2023-05-06T15:09:42;5.10;;;2.77;;
10063;SDS011;5071;52.360;13.134;2023-05-06T15:14:44;3.53;;;2.80;;
10063;SDS011;5071;52.360;13.134;2023-05-06T15:19:48;4.53;;;2.50;;
10063;SDS011;5071;52.360;13.134;2023-05-06T15:24:50;3.13;;;2.40;;
10063;SDS011;5071;52.360;13.134;2023-05-06T15:29:52;3.10;;;1.97;;
10063;SDS011;5071;52.360;13.134;2023-05-06T15:34:55;7.17;;;2.20;;
10063;SDS011;5071;52.360;13.134;2023-05-06T15:39:57;2.57;;;2.13;;
10063;SDS011;5071;52.360;13.134;2023-05-06T15:44:59;4.00;;;2.50;;
10063;SDS011;5071;52.360;13.134;2023-05-06T15:50:02;3.07;;;2.30;;
10063;SDS011;5071;52.360;13.134;2023-05-06T15:55:21;2.97;;;1.90;;
10063;SDS011;5071;52.360;13.134;2023-05-06T16:00:26;3.50;;;2.33;;
10063;SDS011;5071;52.360;13.134;2023-05-06T16:05:30;2.43;;;2.23;;
10063;SDS011;5071;52.360;13.134;2023-05-06T16:10:32;2.30;;;2.10;;
10063;SDS011;5071;52.360;13.134;2023-05-06T16:15:34;2.77;;;2.17;;
10063;SDS011;5071;52.360;13.134;2023-05-06T16:20:37;3.07;;;2.00;;
10063;SDS011;5071;52.360;13.134;2023-05-06T16:25:39;3.70;;;2.43;;
10063;SDS011;5071;52.360;13.134;2023-05-06T16:30:41;5.70;;;2.77;;
10063;SDS011;5071;52.360;13.134;2023-05-06T16:35:44;3.10;;;2.60;;
10063;SDS011;5071;52.360;13.134;2023-05-06T16:40:47;4.40;;;2.80;;
10063;SDS011;5071;52.360;13.134;2023-05-06T16:45:49;3.00;;;2.70;;
10063;SDS011;5071;52.360;13.134;2023-05-06T16:50:53;7.07;;;3.20;;
10063;SDS011;5071;52.360;13.134;2023-05-06T16:55:55;4.13;;;3.10;;
10063;SDS011;5071;52.360;13.134;2023-05-06T17:00:57;9.00;;;5.70;;
10063;SDS011;5071;52.360;13.134;2023-05-06T17:06:00;4.87;;;4.00;;
10063;SDS011;5071;52.360;13.134;2023-05-06T17:11:02;7.67;;;4.80;;
10063;SDS011;5071;52.360;13.134;2023-05-06T17:16:07;5.13;;;3.63;;
10063;SDS011;5071;52.360;13.134;2023-05-06T17:21:10;7.77;;;3.27;;
10063;SDS011;5071;52.360;13.134;2023-05-06T17:26:12;4.33;;;2.90;;
10063;SDS011;5071;52.360;13.134;2023-05-06T17:31:14;4.80;;;3.40;;
10063;SDS011;5071;52.360;13.134;2023-05-06T17:36:17;3.83;;;3.20;;
10063;SDS011;5071;52.360;13.134;2023-05-06T17:41:20;3.43;;;3.13;;
10063;SDS011;5071;52.360;13.134;2023-05-06T17:46:21;4.37;;;3.30;;
10063;SDS011;5071;52.360;13.134;2023-05-06T17:51:25;4.03;;;3.30;;
10063;SDS011;5071;52.360;13.134;2023-05-06T17:56:27;3.43;;;3.07;;
10063;SDS011;5071;52.360;13.134;2023-05-06T18:01:29;9.93;;;6.87;;
10063;SDS011;5071;52.360;13.134;2023-05-06T18:06:32;2.97;;;2.60;;
10063;SDS011;5071;52.360;13.134;2023-05-06T18:11:34;3.13;;;2.70;;
10063;SDS011;5071;52.360;13.134;2023-05-06T18:16:38;5.03;;;3.23;;
10063;SDS011;5071;52.360;13.134;2023-05-06T18:21:41;3.83;;;2.93;;
10063;SDS011;5071;52.360;13.134;2023-05-06T18:26:43;3.30;;;2.33;;
10063;SDS011;5071;52.360;13.134;2023-05-06T18:31:46;2.43;;;2.23;;
10063;SDS011;5071;52.360;13.134;2023-05-06T18:36:50;3.13;;;2.70;;
10063;SDS011;5071;52.360;13.134;2023-05-06T18:41:52;3.20;;;2.57;;
10063;SDS011;5071;52.360;13.134;2023-05-06T18:46:55;4.33;;;3.40;;
10063;SDS011;5071;52.360;13.134;2023-05-06T18:51:58;5.23;;;3.50;;
10063;SDS011;5071;52.360;13.134;2023-05-06T18:57:00;3.10;;;2.80;;
10063;SDS011;5071;52.360;13.134;2023-05-06T19:02:02;6.00;;;3.60;;
10063;SDS011;5071;52.360;13.134;2023-05-06T19:07:07;3.83;;;3.33;;
10063;SDS011;5071;52.360;13.134;2023-05-06T19:12:10;4.20;;;2.97;;
10063;SDS011;5071;52.360;13.134;2023-05-06T19:17:12;4.67;;;3.60;;
10063;SDS011;5071;52.360;13.134;2023-05-06T19:22:15;5.10;;;3.83;;
10063;SDS011;5071;52.360;13.134;2023-05-06T19:27:17;5.73;;;3.43;;
10063;SDS011;5071;52.360;13.134;2023-05-06T19:32:20;4.10;;;3.70;;
10063;SDS011;5071;52.360;13.134;2023-05-06T19:37:24;4.53;;;3.50;;
10063;SDS011;5071;52.360;13.134;2023-05-06T19:42:26;4.60;;;3.97;;
10063;SDS011;5071;52.360;13.134;2023-05-06T19:47:28;6.80;;;4.87;;
10063;SDS011;5071;52.360;13.134;2023-05-06T19:52:31;5.57;;;4.33;;
10063;SDS011;5071;52.360;13.134;2023-05-06T19:57:33;5.17;;;3.97;;
10063;SDS011;5071;52.360;13.134;2023-05-06T20:02:35;5.33;;;4.10;;
10063;SDS011;5071;52.360;13.134;2023-05-06T20:07:39;5.23;;;4.10;;
10063;SDS011;5071;52.360;13.134;2023-05-06T20:12:41;5.63;;;4.73;;
10063;SDS011;5071;52.360;13.134;2023-05-06T20:17:43;5.17;;;4.37;;
10063;SDS011;5071;52.360;13.134;2023-05-06T20:22:46;7.20;;;5.20;;
10063;SDS011;5071;52.360;13.134;2023-05-06T20:27:48;6.37;;;5.03;;
10063;SDS011;5071;52.360;13.134;2023-05-06T20:32:50;8.07;;;5.93;;
10063;SDS011;5071;52.360;13.134;2023-05-06T20:37:54;6.50;;;4.83;;
10063;SDS011;5071;52.360;13.134;2023-05-06T20:42:55;8.93;;;5.63;;
10063;SDS011;5071;52.360;13.134;2023-05-06T20:47:57;8.77;;;5.80;;
10063;SDS011;5071;52.360;13.134;2023-05-06T20:53:00;7.50;;;5.70;;
10063;SDS011;5071;52.360;13.134;2023-05-06T20:58:02;9.30;;;5.97;;
10063;SDS011;5071;52.360;13.134;2023-05-06T21:03:04;8.63;;;6.37;;
10063;SDS011;5071;52.360;13.134;2023-05-06T21:08:08;8.07;;;6.63;;
10063;SDS011;5071;52.360;13.134;2023-05-06T21:13:10;7.90;;;6.17;;
10063;SDS011;5071;52.360;13.134;2023-05-06T21:18:12;9.07;;;6.40;;
10063;SDS011;5071;52.360;13.134;2023-05-06T21:23:15;11.27;;;7.90;;
10063;SDS011;5071;52.360;13.134;2023-05-06T21:28:17;14.50;;;7.20;;
10063;SDS011;5071;52.360;13.134;2023-05-06T21:33:19;13.00;;;7.47;;
10063;SDS011;5071;52.360;13.134;2023-05-06T21:38:23;12.37;;;7.77;;
10063;SDS011;5071;52.360;13.134;2023-05-06T21:43:25;10.47;;;7.50;;
10063;SDS011;5071;52.360;13.134;2023-05-06T21:48:28;12.80;;;8.33;;
10063;SDS011;5071;52.360;13.134;2023-05-06T21:53:32;10.50;;;7.67;;
10063;SDS011;5071;52.360;13.134;2023-05-06T21:58:33;13.90;;;7.83;;
10063;SDS011;5071;52.360;13.134;2023-05-06T22:03:36;11.73;;;7.47;;
10063;SDS011;5071;52.360;13.134;2023-05-06T22:08:40;13.93;;;8.27;;
10063;SDS011;5071;52.360;13.134;2023-05-06T22:13:42;11.67;;;8.07;;
10063;SDS011;5071;52.360;13.134;2023-05-06T22:18:44;11.53;;;8.13;;
10063;SDS011;5071;52.360;13.134;2023-05-06T22:23:47;11.83;;;7.87;;
10063;SDS011;5071;52.360;13.134;2023-05-06T22:28:49;11.83;;;8.30;;
10063;SDS011;5071;52.360;13.134;2023-05-06T22:33:51;15.73;;;8.43;;
10063;SDS011;5071;52.360;13.134;2023-05-06T22:38:56;12.90;;;7.87;;
10063;SDS011;5071;52.360;13.134;2023-05-06T22:43:58;12.33;;;8.20;;
10063;SDS011;5071;52.360;13.134;2023-05-06T22:49:00;15.03;;;9.07;;
10063;SDS011;5071;52.360;13.134;2023-05-06T22:54:04;13.80;;;8.73;;
10063;SDS011;5071;52.360;13.134;2023-05-06T22:59:05;12.90;;;8.37;;
10063;SDS011;5071;52.360;13.134;2023-05-06T23:04:07;12.43;;;8.43;;
10063;SDS011;5071;52.360;13.134;2023-05-06T23:09:10;12.30;;;8.10;;
10063;SDS011;5071;52.360;13.134;2023-05-06T23:14:12;11.90;;;8.67;;
10063;SDS011;5071;52.360;13.134;2023-05-06T23:19:15;11.90;;;7.67;;
10063;SDS011;5071;52.360;13.134;2023-05-06T23:24:18;12.17;;;8.27;;
10063;SDS011;5071;52.360;13.134;2023-05-06T23:29:20;12.83;;;9.17;;
10063;SDS011;5071;52.360;13.134;2023-05-06T23:34:22;10.00;;;7.80;;
10063;SDS011;5071;52.360;13.134;2023-05-06T23:39:25;14.57;;;8.67;;
10063;SDS011;5071;52.360;13.134;2023-05-06T23:44:27;14.80;;;8.87;;
10063;SDS011;5071;52.360;13.134;2023-05-06T23:49:30;13.03;;;9.03;;
10063;SDS011;5071;52.360;13.134;2023-05-06T23:54:34;11.27;;;8.37;;
10063;SDS011;5071;52.360;13.134;2023-05-06T23:59:36;12.30;;;8.10;;
